Time;durP1;ratioP1;P1;durP2;ratioP2;P2;SDS_P1;SDS_P2;PMS_P1;PMS_P2;Temp;Humidity;BMP_temperature;BMP_pressure;BME280_temperature;BME280_humidity;BME280_pressure;Samples;Min_cycle;Max_cycle;Signal;HPM_P1;HPM_P2
2023/08/05 00:00:17;;;;;;;4.68;3.72;;;25.10;99.90;;;;;;5054091;28;20791;-70
2023/08/05 00:02:43;;;;;;;5.68;4.00;;;25.10;99.90;;;;;;5055496;28;20764;-70
2023/08/05 00:05:10;;;;;;;8.43;4.55;;;25.10;99.90;;;;;;5057372;28;20403;-70
2023/08/05 00:07:36;;;;;;;7.07;4.10;;;25.10;99.90;;;;;;5055150;28;21426;-70
2023/08/05 00:10:02;;;;;;;6.80;4.25;;;25.10;99.90;;;;;;5056124;28;20518;-70
2023/08/05 00:12:28;;;;;;;9.77;4.60;;;25.10;99.90;;;;;;5041417;28;21039;-70
2023/08/05 00:14:55;;;;;;;5.97;4.37;;;25.10;99.90;;;;;;5054164;28;20408;-69
2023/08/05 00:17:21;;;;;;;7.43;4.32;;;25.10;99.90;;;;;;5034249;28;20399;-69
2023/08/05 00:19:47;;;;;;;8.93;4.75;;;25.10;99.90;;;;;;5054230;28;20415;-70
2023/08/05 00:22:14;;;;;;;5.68;4.18;;;25.00;99.90;;;;;;5054662;28;20790;-70
2023/08/05 00:24:40;;;;;;;8.32;4.82;;;25.00;99.90;;;;;;5054919;28;20452;-70
2023/08/05 00:27:07;;;;;;;6.55;4.35;;;25.00;99.90;;;;;;5054697;28;20433;-69
2023/08/05 00:29:33;;;;;;;6.88;4.72;;;25.00;99.90;;;;;;5053523;28;20606;-69
2023/08/05 00:31:59;;;;;;;5.73;4.10;;;25.00;99.90;;;;;;5052900;28;20809;-69
2023/08/05 00:34:25;;;;;;;6.30;4.63;;;25.00;99.90;;;;;;5051263;28;20409;-69
2023/08/05 00:36:52;;;;;;;5.72;4.30;;;24.90;99.90;;;;;;5053452;28;20949;-69
2023/08/05 00:39:18;;;;;;;9.48;4.93;;;24.90;99.90;;;;;;5053299;28;20412;-69
2023/08/05 00:41:44;;;;;;;6.30;4.30;;;24.90;99.90;;;;;;5053746;28;20488;-69
2023/08/05 00:44:11;;;;;;;9.35;4.30;;;24.90;99.90;;;;;;5051300;28;20419;-69
2023/08/05 00:46:37;;;;;;;9.77;4.70;;;24.80;99.90;;;;;;5052263;28;20480;-69
2023/08/05 00:49:04;;;;;;;9.57;4.70;;;24.80;99.90;;;;;;5053954;28;20421;-69
2023/08/05 00:51:30;;;;;;;10.60;4.78;;;24.70;99.90;;;;;;5056608;28;21094;-69
2023/08/05 00:53:57;;;;;;;6.38;4.35;;;24.80;99.90;;;;;;5056287;28;20411;-69
2023/08/05 00:56:24;;;;;;;8.52;4.40;;;24.70;99.90;;;;;;5085514;28;20475;-69
2023/08/05 00:58:50;;;;;;;8.70;4.57;;;24.70;99.90;;;;;;5051144;28;20403;-69
2023/08/05 01:01:17;;;;;;;6.38;4.03;;;24.70;99.90;;;;;;5055308;28;20419;-70
2023/08/05 01:03:43;;;;;;;7.43;4.40;;;24.70;99.90;;;;;;5055897;28;20415;-70
2023/08/05 01:06:12;;;;;;;6.73;4.97;;;24.80;99.90;;;;;;5055021;28;20403;-70
2023/08/05 01:08:41;;;;;;;9.93;4.70;;;24.70;99.90;;;;;;5064348;28;20444;-70
2023/08/05 01:11:07;;;;;;;11.85;4.63;;;24.70;99.90;;;;;;5052601;28;20515;-70
2023/08/05 01:13:37;;;;;;;6.68;4.57;;;24.70;99.90;;;;;;5052783;28;20415;-70
2023/08/05 01:16:03;;;;;;;6.47;4.47;;;24.70;99.90;;;;;;5052449;28;20421;-70
2023/08/05 01:18:30;;;;;;;8.23;4.90;;;24.70;99.90;;;;;;5050783;28;20411;-70
2023/08/05 01:21:03;;;;;;;6.25;4.30;;;24.70;99.90;;;;;;5053860;28;20427;-70
2023/08/05 01:23:40;;;;;;;5.40;4.25;;;24.60;99.90;;;;;;5065378;28;20411;-70
2023/08/05 01:26:10;;;;;;;5.28;4.38;;;24.60;99.90;;;;;;5070643;28;21520;-70
2023/08/05 01:28:38;;;;;;;7.17;4.40;;;24.70;99.90;;;;;;5069658;28;20437;-70
2023/08/05 01:31:06;;;;;;;7.22;4.40;;;24.70;99.90;;;;;;5051992;28;20430;-70
2023/08/05 01:33:33;;;;;;;8.82;4.60;;;24.70;99.90;;;;;;5051214;28;20488;-70
2023/08/05 01:35:59;;;;;;;7.93;4.40;;;24.70;99.90;;;;;;5052963;28;22411;-72
2023/08/05 01:38:26;;;;;;;5.80;4.20;;;24.60;99.90;;;;;;5055256;28;20408;-72
2023/08/05 01:40:52;;;;;;;7.50;4.40;;;24.70;99.90;;;;;;5051613;28;20470;-72
2023/08/05 01:43:18;;;;;;;8.35;4.30;;;24.70;99.90;;;;;;5054015;28;20422;-72
2023/08/05 01:45:44;;;;;;;6.82;4.57;;;24.70;99.90;;;;;;5057602;28;20457;-72
2023/08/05 01:48:10;;;;;;;7.18;4.30;;;24.70;99.90;;;;;;5052763;28;20499;-72
2023/08/05 01:50:37;;;;;;;6.93;4.25;;;24.70;99.90;;;;;;5053872;28;20419;-71
2023/08/05 01:53:04;;;;;;;8.23;4.18;;;24.70;99.90;;;;;;5055426;28;20441;-71
2023/08/05 01:55:30;;;;;;;6.10;4.57;;;24.70;99.90;;;;;;5057822;28;20399;-71
2023/08/05 01:57:56;;;;;;;9.52;4.53;;;24.70;99.90;;;;;;5064783;28;20430;-71
2023/08/05 02:00:23;;;;;;;5.55;4.47;;;24.70;99.90;;;;;;5051038;28;20411;-71
2023/08/05 02:02:49;;;;;;;7.55;4.30;;;24.60;99.90;;;;;;5052126;28;20443;-71
2023/08/05 02:05:15;;;;;;;7.32;4.53;;;24.50;99.90;;;;;;5054980;28;20856;-71
2023/08/05 02:07:41;;;;;;;8.35;4.45;;;24.50;99.90;;;;;;5050224;28;20419;-71
2023/08/05 02:10:08;;;;;;;6.28;4.22;;;24.50;99.90;;;;;;5054341;28;20404;-70
2023/08/05 02:12:34;;;;;;;9.77;4.78;;;24.50;99.90;;;;;;5054211;28;20651;-71
2023/08/05 02:15:00;;;;;;;8.27;4.70;;;24.50;99.90;;;;;;5053088;28;20778;-70
2023/08/05 02:17:26;;;;;;;7.07;4.57;;;24.50;99.90;;;;;;5051969;28;21058;-70
2023/08/05 02:19:52;;;;;;;10.07;4.67;;;24.40;99.90;;;;;;5051594;28;20416;-70
2023/08/05 02:22:18;;;;;;;7.53;4.53;;;24.40;99.90;;;;;;5049770;28;20494;-70
2023/08/05 02:24:44;;;;;;;8.52;5.03;;;24.30;99.90;;;;;;5055279;28;20405;-70
2023/08/05 02:27:10;;;;;;;10.13;4.75;;;24.30;99.90;;;;;;5064135;28;20472;-70
2023/08/05 02:29:38;;;;;;;6.93;4.50;;;24.30;99.90;;;;;;5068292;28;20401;-70
2023/08/05 02:32:05;;;;;;;7.45;4.68;;;24.20;99.90;;;;;;5052014;28;20473;-70
2023/08/05 02:34:31;;;;;;;8.95;4.45;;;24.20;99.90;;;;;;5052550;28;21074;-70
2023/08/05 02:36:57;;;;;;;7.57;4.65;;;24.10;99.90;;;;;;5079586;28;20412;-70
2023/08/05 02:39:23;;;;;;;7.50;4.50;;;24.10;99.90;;;;;;5054132;28;20420;-70
2023/08/05 02:41:49;;;;;;;8.00;4.63;;;24.20;99.90;;;;;;5036849;28;20997;-70
2023/08/05 02:44:16;;;;;;;11.10;5.07;;;24.20;99.90;;;;;;5051074;28;20930;-70
2023/08/05 02:46:42;;;;;;;6.60;4.50;;;24.20;99.90;;;;;;5035065;28;20419;-70
2023/08/05 02:49:08;;;;;;;11.23;4.50;;;24.30;99.90;;;;;;5047461;28;20407;-70
2023/08/05 02:51:37;;;;;;;9.68;4.50;;;24.30;99.90;;;;;;5051420;28;20434;-70
2023/08/05 02:54:04;;;;;;;9.27;4.70;;;24.30;99.90;;;;;;5057978;28;20975;-71
2023/08/05 02:56:33;;;;;;;7.20;4.53;;;24.30;99.90;;;;;;5059309;28;20489;-70
2023/08/05 02:59:00;;;;;;;8.40;4.47;;;24.30;99.90;;;;;;5050936;28;20406;-71
2023/08/05 03:01:26;;;;;;;8.45;4.50;;;24.30;99.90;;;;;;5055898;28;20475;-71
2023/08/05 03:03:52;;;;;;;7.32;4.55;;;24.30;99.90;;;;;;5053318;28;20431;-71
2023/08/05 03:06:18;;;;;;;6.75;4.63;;;24.30;99.90;;;;;;5056686;28;20475;-71
2023/08/05 03:08:44;;;;;;;9.50;4.30;;;24.30;99.90;;;;;;5055922;28;20423;-70
2023/08/05 03:11:11;;;;;;;9.53;4.57;;;24.30;99.90;;;;;;5056035;28;20615;-71
2023/08/05 03:13:37;;;;;;;9.50;4.43;;;24.30;99.90;;;;;;5055814;28;20411;-71
2023/08/05 03:16:11;;;;;;;8.50;4.32;;;24.30;99.90;;;;;;5055342;28;20484;-71
2023/08/05 03:18:38;;;;;;;6.80;4.43;;;24.40;99.90;;;;;;5056152;28;20419;-71
2023/08/05 03:21:04;;;;;;;7.20;5.07;;;24.30;99.90;;;;;;5057000;28;20437;-71
2023/08/05 03:23:31;;;;;;;8.52;4.53;;;24.30;99.90;;;;;;5054047;28;20491;-70
2023/08/05 03:25:57;;;;;;;13.38;5.07;;;24.30;99.90;;;;;;5057065;28;20427;-70
2023/08/05 03:28:23;;;;;;;9.73;4.97;;;24.30;99.90;;;;;;5053600;28;20917;-71
2023/08/05 03:30:50;;;;;;;9.77;5.15;;;24.30;99.90;;;;;;5055125;28;20751;-72
2023/08/05 03:33:16;;;;;;;8.55;4.72;;;24.30;99.90;;;;;;5053727;28;20413;-71
2023/08/05 03:35:44;;;;;;;9.88;4.90;;;24.30;99.90;;;;;;5054522;28;20419;-71
2023/08/05 03:38:11;;;;;;;11.82;5.63;;;24.30;99.90;;;;;;5088788;28;20438;-71
2023/08/05 03:40:37;;;;;;;8.38;4.90;;;24.30;99.90;;;;;;5055667;28;20415;-71
2023/08/05 03:43:03;;;;;;;9.38;4.93;;;24.30;99.90;;;;;;5053046;28;20420;-71
2023/08/05 03:45:30;;;;;;;10.88;5.00;;;24.30;99.90;;;;;;5057196;28;20473;-71
2023/08/05 03:47:56;;;;;;;10.03;4.83;;;24.30;99.90;;;;;;5051417;28;20412;-71
2023/08/05 03:50:22;;;;;;;11.02;4.85;;;24.30;99.90;;;;;;5053771;28;20981;-71
2023/08/05 03:52:49;;;;;;;9.45;5.00;;;24.40;99.90;;;;;;5054792;28;20438;-70
2023/08/05 03:55:16;;;;;;;9.90;5.05;;;24.40;99.90;;;;;;5055596;28;20760;-70
2023/08/05 03:57:43;;;;;;;11.05;4.82;;;24.40;99.90;;;;;;5057466;28;20411;-70
2023/08/05 04:00:10;;;;;;;9.10;5.25;;;24.40;99.90;;;;;;5053420;28;20902;-70
2023/08/05 04:02:37;;;;;;;7.68;4.50;;;24.40;99.90;;;;;;5054400;28;20423;-70
2023/08/05 04:05:04;;;;;;;10.93;4.85;;;24.40;99.90;;;;;;5056385;28;20425;-70
2023/08/05 04:07:31;;;;;;;10.60;4.90;;;24.40;99.90;;;;;;5038161;28;20507;-70
2023/08/05 04:09:57;;;;;;;8.57;5.20;;;24.50;99.90;;;;;;5053749;28;20425;-70
2023/08/05 04:12:25;;;;;;;10.88;5.00;;;24.50;99.90;;;;;;5055031;28;21058;-71
2023/08/05 04:14:52;;;;;;;11.88;5.15;;;24.40;99.90;;;;;;5055586;28;20454;-71
2023/08/05 04:17:21;;;;;;;11.95;5.15;;;24.50;99.90;;;;;;5050747;28;20420;-71
2023/08/05 04:19:49;;;;;;;8.80;5.13;;;24.50;99.90;;;;;;5052188;28;20405;-71
2023/08/05 04:22:20;;;;;;;8.98;5.10;;;24.50;99.90;;;;;;5046292;28;20431;-70
2023/08/05 04:24:46;;;;;;;10.13;5.18;;;24.50;99.90;;;;;;5045679;28;20425;-70
2023/08/05 04:27:13;;;;;;;10.10;5.20;;;24.50;99.90;;;;;;5064257;28;20906;-70
2023/08/05 04:29:39;;;;;;;10.32;5.15;;;24.50;99.90;;;;;;5052357;28;20504;-70
2023/08/05 04:32:06;;;;;;;10.98;5.40;;;24.50;99.90;;;;;;5057515;28;20585;-71
2023/08/05 04:34:37;;;;;;;8.40;5.50;;;24.50;99.90;;;;;;5052960;28;20407;-71
2023/08/05 04:37:22;;;;;;;13.32;5.38;;;24.60;99.90;;;;;;5053621;28;20420;-71
2023/08/05 04:39:49;;;;;;;11.77;5.50;;;24.60;99.90;;;;;;5058701;28;20424;-71
2023/08/05 04:42:16;;;;;;;12.67;5.33;;;24.70;99.90;;;;;;5055482;28;20424;-71
2023/08/05 04:44:43;;;;;;;11.05;5.03;;;24.70;99.90;;;;;;5053543;28;21172;-71
2023/08/05 04:47:11;;;;;;;11.50;5.22;;;24.70;99.90;;;;;;5051302;28;20447;-70
2023/08/05 04:49:40;;;;;;;12.75;5.05;;;24.80;99.90;;;;;;5055109;28;20419;-70
2023/08/05 04:52:07;;;;;;;7.10;4.78;;;24.80;99.90;;;;;;5055317;28;20520;-71
2023/08/05 04:54:40;;;;;;;10.07;4.80;;;24.80;99.90;;;;;;5052753;28;20511;-71
2023/08/05 04:57:07;;;;;;;7.78;4.50;;;24.90;99.90;;;;;;5070986;28;20429;-71
2023/08/05 04:59:33;;;;;;;7.57;4.60;;;24.90;99.90;;;;;;5050888;28;20515;-71
2023/08/05 05:02:00;;;;;;;8.68;4.50;;;25.00;99.90;;;;;;5049782;28;20494;-70
2023/08/05 05:04:26;;;;;;;7.85;4.43;;;25.00;99.90;;;;;;5046081;28;20975;-71
2023/08/05 05:06:52;;;;;;;9.93;4.68;;;25.10;99.90;;;;;;5046441;28;20445;-70
2023/08/05 05:09:19;;;;;;;6.70;4.60;;;25.10;99.90;;;;;;5050942;28;20411;-71
2023/08/05 05:11:45;;;;;;;6.93;4.53;;;25.10;99.90;;;;;;5044327;28;20554;-70
2023/08/05 05:14:11;;;;;;;12.38;4.72;;;25.20;99.90;;;;;;5049327;28;20407;-71
2023/08/05 05:16:37;;;;;;;7.97;4.68;;;25.20;99.90;;;;;;5048537;28;20505;-71
2023/08/05 05:19:03;;;;;;;7.67;4.70;;;25.30;99.90;;;;;;5035558;28;20976;-71
2023/08/05 05:21:31;;;;;;;8.52;4.35;;;25.30;99.90;;;;;;5033095;28;20412;-72
2023/08/05 05:23:57;;;;;;;9.88;4.22;;;25.30;99.90;;;;;;5050265;28;20483;-71
2023/08/05 05:26:23;;;;;;;10.07;4.50;;;25.40;99.90;;;;;;5045606;28;20425;-71
2023/08/05 05:28:49;;;;;;;7.57;4.50;;;25.40;99.90;;;;;;5050992;28;20502;-71
2023/08/05 05:31:15;;;;;;;8.05;4.35;;;25.50;99.90;;;;;;5033446;28;20462;-71
2023/08/05 05:33:47;;;;;;;9.55;5.03;;;25.50;99.90;;;;;;5052172;28;21111;-71
2023/08/05 05:36:13;;;;;;;9.10;4.53;;;25.60;99.90;;;;;;5054831;28;20403;-71
2023/08/05 05:38:39;;;;;;;10.70;4.30;;;25.60;99.90;;;;;;5049950;28;20669;-71
2023/08/05 05:41:06;;;;;;;8.87;4.03;;;25.60;99.90;;;;;;5053652;28;20423;-71
2023/08/05 05:43:35;;;;;;;7.35;4.10;;;25.70;99.90;;;;;;5053100;28;20906;-71
2023/08/05 05:46:02;;;;;;;6.85;4.47;;;25.70;99.90;;;;;;5054435;28;21875;-71
2023/08/05 05:48:28;;;;;;;9.23;4.53;;;25.80;99.90;;;;;;5047925;28;20538;-71
2023/08/05 05:50:55;;;;;;;7.25;4.28;;;25.80;99.90;;;;;;5049546;28;20461;-72
2023/08/05 05:53:21;;;;;;;6.70;4.40;;;25.90;99.90;;;;;;5049640;28;20809;-71
2023/08/05 05:55:53;;;;;;;5.70;4.13;;;26.00;99.90;;;;;;5049995;28;21024;-71
2023/08/05 05:58:19;;;;;;;6.55;4.32;;;26.00;99.90;;;;;;5053620;28;21175;-71
2023/08/05 06:00:46;;;;;;;6.78;4.43;;;26.10;99.90;;;;;;5046477;28;20799;-71
2023/08/05 06:03:12;;;;;;;9.25;4.50;;;26.20;99.90;;;;;;5042931;28;20407;-71
2023/08/05 06:05:40;;;;;;;7.47;4.20;;;26.30;99.90;;;;;;5050920;28;20448;-71
2023/08/05 06:08:08;;;;;;;7.93;4.35;;;26.30;99.90;;;;;;5036039;28;20798;-71
2023/08/05 06:10:38;;;;;;;6.85;4.22;;;26.40;99.90;;;;;;5048837;28;20404;-71
2023/08/05 06:13:05;;;;;;;7.03;5.00;;;26.50;99.90;;;;;;5053013;28;20411;-72
2023/08/05 06:15:31;;;;;;;7.10;4.22;;;26.50;99.90;;;;;;5050190;28;20445;-71
2023/08/05 06:17:58;;;;;;;6.47;4.57;;;26.70;99.90;;;;;;5051795;28;20427;-71
2023/08/05 06:20:24;;;;;;;8.10;3.95;;;26.70;99.90;;;;;;5067617;28;20406;-71
2023/08/05 06:22:50;;;;;;;9.43;4.25;;;26.70;99.90;;;;;;5049669;28;20500;-71
2023/08/05 06:25:17;;;;;;;8.10;4.53;;;26.80;99.90;;;;;;5046348;28;20418;-71
2023/08/05 06:27:43;;;;;;;11.98;4.43;;;26.90;99.90;;;;;;5046689;28;20407;-71
2023/08/05 06:30:10;;;;;;;10.30;4.45;;;26.90;99.90;;;;;;5056760;28;20412;-71
2023/08/05 06:32:36;;;;;;;7.90;4.60;;;27.00;99.90;;;;;;5056916;28;20506;-71
2023/08/05 06:35:02;;;;;;;7.35;4.30;;;27.20;99.90;;;;;;5057559;28;20494;-71
2023/08/05 06:37:29;;;;;;;6.00;4.22;;;27.20;99.90;;;;;;5052546;28;20762;-71
2023/08/05 06:39:55;;;;;;;6.95;4.20;;;27.30;99.90;;;;;;5051420;28;20400;-71
2023/08/05 06:42:23;;;;;;;7.10;4.28;;;27.40;99.90;;;;;;5056509;28;20419;-71
2023/08/05 06:44:50;;;;;;;8.83;4.37;;;27.40;99.90;;;;;;5053333;28;20521;-71
2023/08/05 06:47:17;;;;;;;8.52;4.45;;;27.60;99.90;;;;;;5058912;28;20419;-71
2023/08/05 06:49:44;;;;;;;9.32;4.13;;;27.60;99.90;;;;;;5056548;28;20918;-70
2023/08/05 06:52:10;;;;;;;5.47;4.20;;;27.70;99.90;;;;;;5054179;28;20516;-71
2023/08/05 06:54:36;;;;;;;6.72;4.25;;;27.90;99.90;;;;;;5055276;28;20924;-71
2023/08/05 06:57:03;;;;;;;6.10;4.20;;;27.90;99.90;;;;;;5054850;28;20460;-71
2023/08/05 06:59:30;;;;;;;11.17;5.17;;;28.00;99.90;;;;;;5056672;28;20482;-70
2023/08/05 07:01:56;;;;;;;7.70;4.05;;;28.10;99.90;;;;;;5055081;28;20407;-70
2023/08/05 07:04:23;;;;;;;6.85;4.30;;;28.10;99.90;;;;;;5059758;28;20703;-70
2023/08/05 07:06:50;;;;;;;6.50;4.10;;;28.30;99.90;;;;;;5054032;28;20411;-70
2023/08/05 07:09:16;;;;;;;7.63;4.40;;;28.30;99.90;;;;;;5060592;28;21039;-71
2023/08/05 07:11:42;;;;;;;7.95;4.20;;;28.40;99.90;;;;;;5062565;28;20413;-71
2023/08/05 07:14:08;;;;;;;7.47;4.43;;;28.50;99.90;;;;;;5058948;28;20410;-71
2023/08/05 07:16:35;;;;;;;7.30;4.25;;;28.50;99.90;;;;;;5075281;28;20860;-71
2023/08/05 07:19:01;;;;;;;7.15;4.13;;;28.70;99.90;;;;;;5063517;28;20412;-71
2023/08/05 07:21:27;;;;;;;7.95;4.50;;;28.70;99.90;;;;;;5057517;28;20416;-71
2023/08/05 07:23:54;;;;;;;8.88;4.30;;;28.80;99.90;;;;;;5065680;28;20411;-71
2023/08/05 07:26:20;;;;;;;9.98;4.18;;;28.90;99.90;;;;;;5057974;28;20413;-71
2023/08/05 07:28:48;;;;;;;6.88;4.18;;;29.10;99.90;;;;;;5059295;28;20456;-72
2023/08/05 07:31:16;;;;;;;7.63;4.30;;;29.10;99.90;;;;;;5058473;28;20422;-72
2023/08/05 07:33:46;;;;;;;7.90;4.20;;;29.10;99.90;;;;;;5054782;28;20399;-71
2023/08/05 07:36:17;;;;;;;8.15;4.40;;;29.20;99.90;;;;;;5061443;28;20426;-71
2023/08/05 07:38:47;;;;;;;8.47;4.23;;;29.30;99.90;;;;;;5038575;28;20504;-71
2023/08/05 07:41:15;;;;;;;6.95;4.10;;;29.30;99.90;;;;;;5053035;28;20430;-71
2023/08/05 07:43:43;;;;;;;9.18;4.18;;;29.40;99.90;;;;;;5055192;28;20430;-71
2023/08/05 07:46:11;;;;;;;7.30;4.00;;;29.60;99.90;;;;;;5036748;28;20411;-71
2023/08/05 07:48:39;;;;;;;10.40;4.35;;;29.70;99.90;;;;;;5053906;28;20415;-71
2023/08/05 07:51:06;;;;;;;7.78;4.35;;;29.80;99.90;;;;;;5083595;28;20440;-71
2023/08/05 07:53:37;;;;;;;7.55;3.95;;;29.80;99.90;;;;;;5059089;28;20774;-71
2023/08/05 07:56:14;;;;;;;8.13;4.38;;;29.90;99.90;;;;;;5060178;28;20511;-71
2023/08/05 07:58:45;;;;;;;8.05;4.32;;;30.10;99.90;;;;;;5039902;28;20798;-71
2023/08/05 08:01:22;;;;;;;8.95;4.30;;;30.20;99.90;;;;;;5056177;28;20769;-71
2023/08/05 08:03:56;;;;;;;10.18;4.60;;;30.20;99.90;;;;;;5056496;28;20419;-71
2023/08/05 08:06:22;;;;;;;12.40;4.77;;;30.40;99.90;;;;;;5058097;28;20423;-71
2023/08/05 08:08:49;;;;;;;10.30;4.57;;;30.50;99.90;;;;;;5058347;28;20506;-71
2023/08/05 08:11:16;;;;;;;12.18;4.50;;;30.50;99.90;;;;;;5048650;28;20424;-71
2023/08/05 08:13:42;;;;;;;9.10;4.40;;;30.60;99.90;;;;;;5061418;28;20414;-71
2023/08/05 08:16:09;;;;;;;11.40;4.60;;;30.70;99.90;;;;;;5052311;28;20585;-71
2023/08/05 08:18:36;;;;;;;9.85;4.00;;;30.80;99.90;;;;;;5050988;28;20413;-71
2023/08/05 08:21:04;;;;;;;6.77;4.00;;;30.90;99.90;;;;;;5063735;28;20483;-71
2023/08/05 08:23:30;;;;;;;10.65;4.43;;;30.90;99.90;;;;;;5041231;28;20419;-71
2023/08/05 08:26:00;;;;;;;8.57;4.47;;;31.00;99.90;;;;;;5047775;28;20436;-71
2023/08/05 08:28:27;;;;;;;9.67;4.47;;;31.00;99.90;;;;;;5063152;28;22251;-71
2023/08/05 08:30:55;;;;;;;8.07;4.20;;;31.20;99.90;;;;;;4994602;28;1462148;-71
2023/08/05 08:33:25;;;;;;;8.83;4.30;;;31.30;99.90;;;;;;5046153;28;20997;-71
2023/08/05 08:35:51;;;;;;;6.10;4.03;;;31.30;99.90;;;;;;5050906;28;20423;-71
2023/08/05 08:38:18;;;;;;;7.13;4.30;;;31.50;99.90;;;;;;5054643;28;20438;-71
2023/08/05 08:40:56;;;;;;;10.05;4.55;;;31.50;99.90;;;;;;5048418;28;20934;-72
2023/08/05 08:43:22;;;;;;;11.55;4.78;;;31.60;99.90;;;;;;5052812;28;20924;-71
2023/08/05 08:45:53;;;;;;;10.63;4.15;;;31.70;99.90;;;;;;5053710;28;20404;-71
2023/08/05 08:48:20;;;;;;;9.07;4.10;;;31.80;99.90;;;;;;5087969;28;20552;-71
2023/08/05 08:50:48;;;;;;;8.68;4.18;;;31.90;99.90;;;;;;5054270;28;20904;-71
2023/08/05 08:53:15;;;;;;;9.88;4.35;;;31.90;99.90;;;;;;5052590;28;21043;-71
2023/08/05 08:55:43;;;;;;;9.00;3.72;;;32.00;99.90;;;;;;5059662;28;20412;-71
2023/08/05 08:58:11;;;;;;;7.60;4.15;;;32.10;99.90;;;;;;5057139;28;20395;-71
2023/08/05 09:00:37;;;;;;;8.75;4.32;;;32.10;99.90;;;;;;5075124;28;20506;-71
2023/08/05 09:03:07;;;;;;;10.55;4.32;;;32.20;99.90;;;;;;5073013;28;20418;-71
2023/08/05 09:05:44;;;;;;;9.77;3.90;;;32.30;99.90;;;;;;5054855;28;20472;-71
2023/08/05 09:08:11;;;;;;;11.00;4.55;;;32.40;99.90;;;;;;5054763;28;20411;-71
2023/08/05 09:10:38;;;;;;;8.57;4.30;;;32.40;99.90;;;;;;5049956;28;20399;-71
2023/08/05 09:13:07;;;;;;;11.07;4.45;;;32.50;99.90;;;;;;5054217;28;20403;-71
2023/08/05 09:15:36;;;;;;;11.77;4.35;;;32.60;99.90;;;;;;5050473;28;20408;-71
2023/08/05 09:18:04;;;;;;;8.93;4.10;;;32.70;99.90;;;;;;5044661;28;20415;-71
2023/08/05 09:20:35;;;;;;;9.37;4.20;;;32.70;99.80;;;;;;5051730;28;20425;-71
2023/08/05 09:23:09;;;;;;;9.43;4.13;;;32.90;99.90;;;;;;5049631;28;20897;-72
2023/08/05 09:25:47;;;;;;;9.57;4.13;;;32.90;99.40;;;;;;5066395;28;21500;-72
2023/08/05 09:28:27;;;;;;;8.80;4.20;;;33.00;98.70;;;;;;5054860;28;20809;-71
2023/08/05 09:31:13;;;;;;;6.60;3.90;;;33.00;97.30;;;;;;5052939;28;20799;-71
2023/08/05 09:33:42;;;;;;;5.85;3.60;;;33.10;96.00;;;;;;5053777;28;20426;-71
2023/08/05 09:36:13;;;;;;;8.35;4.35;;;33.20;95.70;;;;;;5054000;28;20518;-71
2023/08/05 09:38:39;;;;;;;7.00;3.80;;;33.30;97.20;;;;;;5053252;28;20501;-71
2023/08/05 09:41:07;;;;;;;9.43;4.00;;;33.40;96.20;;;;;;5068937;28;20408;-71
2023/08/05 09:43:38;;;;;;;10.25;4.40;;;33.40;96.20;;;;;;5050776;28;20424;-71
2023/08/05 09:46:06;;;;;;;7.90;4.28;;;33.50;97.10;;;;;;5057154;28;20439;-72
2023/08/05 09:48:44;;;;;;;7.57;4.00;;;33.70;97.30;;;;;;5054114;28;20417;-71
2023/08/05 09:51:16;;;;;;;8.07;3.97;;;33.80;97.50;;;;;;5050628;28;21224;-71
2023/08/05 09:53:47;;;;;;;11.25;4.30;;;33.90;98.30;;;;;;5052961;28;20458;-71
2023/08/05 09:56:18;;;;;;;7.57;4.35;;;33.90;98.70;;;;;;5052526;28;20419;-71
2023/08/05 09:58:47;;;;;;;8.93;4.70;;;33.90;99.20;;;;;;5054545;28;20455;-72
2023/08/05 10:01:14;;;;;;;6.82;3.97;;;33.90;99.30;;;;;;5051468;28;20409;-71
2023/08/05 10:03:40;;;;;;;8.15;4.05;;;34.00;98.70;;;;;;5048075;28;20468;-71
2023/08/05 10:06:07;;;;;;;9.25;4.40;;;34.10;98.80;;;;;;5050349;28;20419;-71
2023/08/05 10:08:40;;;;;;;9.70;4.28;;;34.00;99.00;;;;;;5053148;28;20723;-72
2023/08/05 10:11:08;;;;;;;8.18;4.30;;;34.00;98.80;;;;;;5035800;28;20423;-71
2023/08/05 10:13:41;;;;;;;8.27;4.20;;;34.00;99.00;;;;;;5063262;28;20498;-71
2023/08/05 10:16:09;;;;;;;9.18;4.45;;;34.10;99.20;;;;;;5045300;28;20590;-71
2023/08/05 10:18:38;;;;;;;11.18;4.32;;;34.10;99.40;;;;;;5050410;28;20433;-71
2023/08/05 10:21:05;;;;;;;7.38;4.00;;;34.20;99.20;;;;;;5033504;28;20403;-72
2023/08/05 10:23:36;;;;;;;8.93;4.10;;;34.20;99.80;;;;;;5074203;28;20415;-71
2023/08/05 10:26:06;;;;;;;8.68;4.28;;;34.10;99.40;;;;;;5050443;28;20411;-72
2023/08/05 10:28:35;;;;;;;7.03;3.88;;;34.20;99.30;;;;;;5058168;28;20439;-72
2023/08/05 10:31:21;;;;;;;6.90;3.77;;;34.10;98.90;;;;;;5062708;28;20420;-71
2023/08/05 10:34:17;;;;;;;7.72;3.60;;;34.10;98.70;;;;;;5056574;28;20451;-71
2023/08/05 10:36:49;;;;;;;6.05;3.95;;;34.00;98.40;;;;;;5066958;28;21316;-71
2023/08/05 10:39:41;;;;;;;8.38;4.25;;;34.00;98.50;;;;;;5037211;28;20415;-71
2023/08/05 10:42:29;;;;;;;7.13;4.10;;;34.00;98.50;;;;;;5056963;28;20554;-72
2023/08/05 10:44:58;;;;;;;6.72;3.90;;;34.00;97.80;;;;;;5038523;28;20412;-71
2023/08/05 10:47:25;;;;;;;9.20;4.43;;;33.90;97.20;;;;;;5056017;28;20419;-71
2023/08/05 10:49:59;;;;;;;8.00;4.07;;;33.90;98.20;;;;;;5052725;28;20469;-71
2023/08/05 10:52:26;;;;;;;7.13;4.00;;;33.90;98.20;;;;;;5053807;28;20961;-72
2023/08/05 10:54:53;;;;;;;8.38;4.07;;;33.90;98.00;;;;;;5051990;28;21050;-71
2023/08/05 10:57:38;;;;;;;9.40;4.18;;;33.90;98.20;;;;;;5051775;28;21096;-71
2023/08/05 11:00:11;;;;;;;8.45;3.90;;;33.90;98.30;;;;;;5030757;28;20921;-71
2023/08/05 11:02:37;;;;;;;10.17;4.60;;;33.90;99.20;;;;;;5049366;28;20766;-71
2023/08/05 11:05:08;;;;;;;9.40;4.47;;;33.90;99.20;;;;;;5048070;28;20461;-71
2023/08/05 11:07:45;;;;;;;10.77;4.03;;;33.90;99.70;;;;;;5049946;28;20899;-71
2023/08/05 11:10:12;;;;;;;8.20;4.15;;;33.80;99.60;;;;;;5048328;28;20419;-71
2023/08/05 11:12:39;;;;;;;9.65;4.18;;;33.80;99.70;;;;;;5063332;28;20426;-71
2023/08/05 11:15:08;;;;;;;10.25;4.10;;;33.80;99.90;;;;;;5052129;28;20403;-71
2023/08/05 11:17:54;;;;;;;8.80;4.03;;;33.80;99.90;;;;;;5049704;28;20471;-71
2023/08/05 11:20:20;;;;;;;10.98;4.13;;;33.70;99.90;;;;;;5053464;28;20415;-71
2023/08/05 11:22:47;;;;;;;8.65;4.28;;;33.70;99.90;;;;;;5047812;28;20822;-71
2023/08/05 11:25:18;;;;;;;8.85;4.00;;;33.60;99.90;;;;;;5054778;28;20449;-71
2023/08/05 11:27:51;;;;;;;8.15;4.15;;;33.60;99.90;;;;;;5058454;28;20420;-71
2023/08/05 11:30:20;;;;;;;8.55;4.47;;;33.60;99.30;;;;;;5050893;28;20423;-71
2023/08/05 11:32:58;;;;;;;8.80;4.40;;;33.50;98.70;;;;;;5050897;28;20562;-71
2023/08/05 11:35:26;;;;;;;9.25;4.35;;;33.50;98.60;;;;;;5071611;28;20880;-71
2023/08/05 11:37:53;;;;;;;8.55;4.57;;;33.50;98.90;;;;;;5054873;28;20423;-71
2023/08/05 11:40:19;;;;;;;9.88;4.68;;;33.50;99.90;;;;;;5040376;28;21599;-71
2023/08/05 11:42:46;;;;;;;7.40;4.18;;;33.50;99.50;;;;;;5053489;28;20419;-72
2023/08/05 11:45:15;;;;;;;9.97;4.37;;;33.50;99.20;;;;;;5053697;28;20851;-71
2023/08/05 11:47:42;;;;;;;9.82;4.22;;;33.40;98.70;;;;;;5039428;28;20564;-71
2023/08/05 11:50:11;;;;;;;8.00;4.20;;;33.50;99.30;;;;;;5053267;28;20414;-71
2023/08/05 11:52:41;;;;;;;8.82;4.07;;;33.40;98.50;;;;;;5061148;28;20413;-71
2023/08/05 11:55:09;;;;;;;8.53;4.20;;;33.50;98.90;;;;;;5050865;28;20411;-72
2023/08/05 11:57:35;;;;;;;8.60;4.45;;;33.50;98.70;;;;;;5053701;28;21226;-71
2023/08/05 12:00:09;;;;;;;7.97;4.20;;;33.50;99.30;;;;;;5055456;28;20416;-71
2023/08/05 12:02:36;;;;;;;7.87;4.33;;;33.40;98.70;;;;;;5052501;28;21596;-71
2023/08/05 12:05:04;;;;;;;7.95;4.13;;;33.40;98.70;;;;;;5080240;28;21596;-71
2023/08/05 12:07:30;;;;;;;8.95;4.07;;;33.40;98.90;;;;;;5034029;28;20522;-71
2023/08/05 12:10:13;;;;;;;9.13;4.33;;;33.30;98.40;;;;;;5031899;28;20462;-71
2023/08/05 12:12:50;;;;;;;6.43;3.90;;;33.30;98.70;;;;;;5050577;28;20422;-71
2023/08/05 12:15:26;;;;;;;10.40;4.50;;;33.20;98.60;;;;;;5054590;28;20415;-71
2023/08/05 12:17:58;;;;;;;7.47;4.25;;;33.20;98.50;;;;;;5056248;28;20404;-71
2023/08/05 12:20:34;;;;;;;7.82;4.15;;;33.20;98.10;;;;;;5081946;28;22165;-71
2023/08/05 12:23:01;;;;;;;10.05;4.28;;;33.20;98.30;;;;;;5060537;28;20414;-71
2023/08/05 12:25:29;;;;;;;8.98;4.28;;;33.20;98.70;;;;;;5079799;28;20419;-71
2023/08/05 12:27:57;;;;;;;9.45;4.22;;;33.20;98.90;;;;;;5056227;28;20455;-71
2023/08/05 12:30:24;;;;;;;10.07;4.22;;;33.20;98.90;;;;;;5055016;28;20423;-71
2023/08/05 12:32:52;;;;;;;8.77;4.10;;;33.10;98.80;;;;;;5054382;28;20438;-71
2023/08/05 12:35:19;;;;;;;7.97;3.90;;;33.20;99.00;;;;;;5055558;28;20959;-71
2023/08/05 12:37:46;;;;;;;9.20;4.22;;;33.10;98.70;;;;;;5068608;28;20820;-71
2023/08/05 12:40:13;;;;;;;13.25;4.15;;;33.10;98.80;;;;;;5050814;28;20665;-71
2023/08/05 12:42:40;;;;;;;8.48;4.28;;;33.10;98.60;;;;;;5050367;28;20423;-71
2023/08/05 12:45:08;;;;;;;9.45;3.90;;;33.10;98.40;;;;;;5068358;28;21099;-71
2023/08/05 12:47:36;;;;;;;7.85;4.00;;;33.10;98.10;;;;;;5055378;28;20419;-71
2023/08/05 12:50:05;;;;;;;8.02;3.97;;;33.00;98.10;;;;;;5066540;28;20416;-71